sensor_id;sensor_type;location;lat;lon;timestamp;pressure;altitude;pressure_sealevel;temperature;humidity
54666;BME280;40566;50.006;36.180;2022-10-26T00:00:19;99676.69;;;11.24;82.98
54666;BME280;40566;50.006;36.180;2022-10-26T00:05:22;99668.03;;;11.25;83.00
54666;BME280;40566;50.006;36.180;2022-10-26T00:10:23;99660.38;;;11.22;83.09
54666;BME280;40566;50.006;36.180;2022-10-26T00:15:24;99650.84;;;11.22;82.92
54666;BME280;40566;50.006;36.180;2022-10-26T00:20:24;99648.22;;;11.24;83.12
54666;BME280;40566;50.006;36.180;2022-10-26T00:25:25;99641.28;;;11.24;83.21
54666;BME280;40566;50.006;36.180;2022-10-26T00:30:26;99642.88;;;11.28;83.22
54666;BME280;40566;50.006;36.180;2022-10-26T00:35:26;99627.19;;;11.33;83.23
54666;BME280;40566;50.006;36.180;2022-10-26T00:40:28;99620.22;;;11.35;83.24
54666;BME280;40566;50.006;36.180;2022-10-26T00:45:29;99617.59;;;11.37;83.29
54666;BME280;40566;50.006;36.180;2022-10-26T00:50:37;99609.59;;;11.43;83.12
54666;BME280;40566;50.006;36.180;2022-10-26T00:55:43;99591.47;;;11.43;83.25
54666;BME280;40566;50.006;36.180;2022-10-26T01:00:45;99602.72;;;11.43;83.45
54666;BME280;40566;50.006;36.180;2022-10-26T01:05:48;99587.88;;;11.47;83.52
54666;BME280;40566;50.006;36.180;2022-10-26T01:10:49;99582.81;;;11.44;83.58
54666;BME280;40566;50.006;36.180;2022-10-26T01:21:38;99561.09;;;11.48;83.55
54666;BME280;40566;50.006;36.180;2022-10-26T01:26:57;99560.25;;;11.47;83.79
54666;BME280;40566;50.006;36.180;2022-10-26T01:32:44;99559.28;;;11.50;83.81
54666;BME280;40566;50.006;36.180;2022-10-26T01:38:23;99553.94;;;11.55;83.66
54666;BME280;40566;50.006;36.180;2022-10-26T01:43:27;99555.47;;;11.60;83.78
54666;BME280;40566;50.006;36.180;2022-10-26T01:48:31;99541.66;;;11.61;83.93
54666;BME280;40566;50.006;36.180;2022-10-26T01:53:32;99544.22;;;11.61;83.96
54666;BME280;40566;50.006;36.180;2022-10-26T02:14:06;99526.66;;;11.69;84.30
54666;BME280;40566;50.006;36.180;2022-10-26T02:19:36;99518.84;;;11.71;84.22
54666;BME280;40566;50.006;36.180;2022-10-26T02:24:39;99511.00;;;11.73;84.12
54666;BME280;40566;50.006;36.180;2022-10-26T02:29:41;99500.56;;;11.74;84.44
54666;BME280;40566;50.006;36.180;2022-10-26T02:34:44;99501.38;;;11.76;84.34
54666;BME280;40566;50.006;36.180;2022-10-26T02:39:48;99496.97;;;11.78;84.30
54666;BME280;40566;50.006;36.180;2022-10-26T02:44:53;99493.41;;;11.81;84.43
54666;BME280;40566;50.006;36.180;2022-10-26T02:49:57;99499.50;;;11.80;84.28
54666;BME280;40566;50.006;36.180;2022-10-26T03:00:17;99480.53;;;11.79;84.40
54666;BME280;40566;50.006;36.180;2022-10-26T03:05:29;99477.03;;;11.80;84.34
54666;BME280;40566;50.006;36.180;2022-10-26T03:10:33;99472.75;;;11.79;84.57
54666;BME280;40566;50.006;36.180;2022-10-26T03:15:37;99467.63;;;11.78;84.58
54666;BME280;40566;50.006;36.180;2022-10-26T03:20:38;99465.88;;;11.78;84.76
54666;BME280;40566;50.006;36.180;2022-10-26T03:25:39;99464.84;;;11.82;84.80
54666;BME280;40566;50.006;36.180;2022-10-26T03:30:39;99458.78;;;11.83;84.60
54666;BME280;40566;50.006;36.180;2022-10-26T03:35:40;99456.19;;;11.83;84.61
54666;BME280;40566;50.006;36.180;2022-10-26T03:40:40;99449.34;;;11.81;84.65
54666;BME280;40566;50.006;36.180;2022-10-26T03:45:41;99442.41;;;11.83;84.92
54666;BME280;40566;50.006;36.180;2022-10-26T03:50:42;99444.03;;;11.85;84.86
54666;BME280;40566;50.006;36.180;2022-10-26T03:55:43;99435.28;;;11.88;84.81
54666;BME280;40566;50.006;36.180;2022-10-26T04:00:44;99437.84;;;11.89;84.80
54666;BME280;40566;50.006;36.180;2022-10-26T04:05:44;99443.88;;;11.90;84.82
54666;BME280;40566;50.006;36.180;2022-10-26T04:10:46;99428.25;;;11.92;84.96
54666;BME280;40566;50.006;36.180;2022-10-26T04:15:46;99435.25;;;11.89;85.07
54666;BME280;40566;50.006;36.180;2022-10-26T04:20:47;99431.13;;;11.84;85.27
54666;BME280;40566;50.006;36.180;2022-10-26T04:25:48;99430.16;;;11.86;85.09
54666;BME280;40566;50.006;36.180;2022-10-26T04:30:49;99422.25;;;11.91;85.18
54666;BME280;40566;50.006;36.180;2022-10-26T04:35:50;99414.47;;;11.91;84.82
54666;BME280;40566;50.006;36.180;2022-10-26T04:40:50;99417.13;;;11.89;85.11
54666;BME280;40566;50.006;36.180;2022-10-26T04:45:57;99397.94;;;11.94;84.80
54666;BME280;40566;50.006;36.180;2022-10-26T04:50:59;99400.66;;;11.90;84.87
54666;BME280;40566;50.006;36.180;2022-10-26T04:56:00;99401.50;;;11.91;85.14
54666;BME280;40566;50.006;36.180;2022-10-26T05:01:01;99403.19;;;11.92;84.95
54666;BME280;40566;50.006;36.180;2022-10-26T05:06:02;99403.19;;;11.92;85.10
54666;BME280;40566;50.006;36.180;2022-10-26T05:11:03;99402.34;;;11.92;85.07
54666;BME280;40566;50.006;36.180;2022-10-26T05:16:03;99395.34;;;11.94;84.98
54666;BME280;40566;50.006;36.180;2022-10-26T05:21:04;99402.22;;;11.95;85.08
54666;BME280;40566;50.006;36.180;2022-10-26T05:26:05;99411.59;;;11.99;85.19
54666;BME280;40566;50.006;36.180;2022-10-26T05:31:06;99409.00;;;11.99;84.85
54666;BME280;40566;50.006;36.180;2022-10-26T05:36:06;99401.84;;;12.04;84.73
54666;BME280;40566;50.006;36.180;2022-10-26T05:41:07;99404.44;;;12.04;84.86
54666;BME280;40566;50.006;36.180;2022-10-26T05:46:08;99405.22;;;12.06;85.08
54666;BME280;40566;50.006;36.180;2022-10-26T05:51:08;99408.56;;;12.09;84.94
54666;BME280;40566;50.006;36.180;2022-10-26T05:56:18;99391.25;;;12.10;84.81
54666;BME280;40566;50.006;36.180;2022-10-26T06:01:34;99391.97;;;12.14;84.90
54666;BME280;40566;50.006;36.180;2022-10-26T06:06:42;99383.22;;;12.16;85.01
54666;BME280;40566;50.006;36.180;2022-10-26T06:11:43;99388.34;;;12.18;84.81
54666;BME280;40566;50.006;36.180;2022-10-26T06:16:59;99393.44;;;12.21;84.86
54666;BME280;40566;50.006;36.180;2022-10-26T06:33:00;99373.00;;;12.34;84.76
54666;BME280;40566;50.006;36.180;2022-10-26T06:38:09;99363.34;;;12.37;84.73
54666;BME280;40566;50.006;36.180;2022-10-26T06:43:15;99354.59;;;12.40;84.55
54666;BME280;40566;50.006;36.180;2022-10-26T06:48:21;99346.97;;;12.37;84.86
54666;BME280;40566;50.006;36.180;2022-10-26T06:53:55;99352.00;;;12.40;84.71
54666;BME280;40566;50.006;36.180;2022-10-26T06:59:15;99348.25;;;12.47;84.49
54666;BME280;40566;50.006;36.180;2022-10-26T07:04:20;99364.66;;;12.47;84.62
54666;BME280;40566;50.006;36.180;2022-10-26T07:09:21;99356.81;;;12.49;84.58
54666;BME280;40566;50.006;36.180;2022-10-26T07:14:22;99355.00;;;12.51;84.35
54666;BME280;40566;50.006;36.180;2022-10-26T07:19:23;99346.31;;;12.52;84.75
54666;BME280;40566;50.006;36.180;2022-10-26T07:24:23;99344.34;;;12.57;84.53
54666;BME280;40566;50.006;36.180;2022-10-26T07:29:25;99340.88;;;12.58;84.62
54666;BME280;40566;50.006;36.180;2022-10-26T07:34:27;99349.44;;;12.60;84.88
54666;BME280;40566;50.006;36.180;2022-10-26T07:39:28;99349.16;;;12.66;84.55
54666;BME280;40566;50.006;36.180;2022-10-26T07:44:31;99348.34;;;12.66;84.55
54666;BME280;40566;50.006;36.180;2022-10-26T07:49:32;99341.22;;;12.69;84.85
54666;BME280;40566;50.006;36.180;2022-10-26T07:54:33;99338.41;;;12.76;84.29
54666;BME280;40566;50.006;36.180;2022-10-26T07:59:34;99346.03;;;12.79;84.38
54666;BME280;40566;50.006;36.180;2022-10-26T08:04:35;99333.06;;;12.79;84.25
54666;BME280;40566;50.006;36.180;2022-10-26T08:09:35;99331.19;;;12.82;84.25
54666;BME280;40566;50.006;36.180;2022-10-26T08:14:36;99335.31;;;12.86;84.09
54666;BME280;40566;50.006;36.180;2022-10-26T08:19:36;99336.75;;;12.94;84.46
54666;BME280;40566;50.006;36.180;2022-10-26T08:24:37;99330.69;;;12.93;84.28
54666;BME280;40566;50.006;36.180;2022-10-26T08:29:37;99326.44;;;12.92;84.34
54666;BME280;40566;50.006;36.180;2022-10-26T08:34:38;99327.47;;;12.88;84.52
54666;BME280;40566;50.006;36.180;2022-10-26T08:39:38;99329.16;;;12.89;84.22
54666;BME280;40566;50.006;36.180;2022-10-26T08:44:51;99315.97;;;12.94;84.45
54666;BME280;40566;50.006;36.180;2022-10-26T08:54:59;99318.00;;;12.87;84.57
54666;BME280;40566;50.006;36.180;2022-10-26T09:00:06;99316.16;;;12.89;84.16
54666;BME280;40566;50.006;36.180;2022-10-26T09:05:18;99309.38;;;12.86;84.22
54666;BME280;40566;50.006;36.180;2022-10-26T09:26:26;99304.47;;;12.99;84.38
54666;BME280;40566;50.006;36.180;2022-10-26T09:31:29;99305.38;;;12.98;84.21
54666;BME280;40566;50.006;36.180;2022-10-26T09:36:33;99303.56;;;13.00;84.30
54666;BME280;40566;50.006;36.180;2022-10-26T09:41:55;99305.88;;;13.06;84.47
54666;BME280;40566;50.006;36.180;2022-10-26T09:47:11;99311.06;;;13.06;84.59
54666;BME280;40566;50.006;36.180;2022-10-26T09:52:14;99299.84;;;13.06;84.54
54666;BME280;40566;50.006;36.180;2022-10-26T09:57:18;99307.28;;;13.14;84.25
54666;BME280;40566;50.006;36.180;2022-10-26T10:02:38;99289.06;;;13.15;84.20
54666;BME280;40566;50.006;36.180;2022-10-26T10:07:42;99298.66;;;13.13;84.51
54666;BME280;40566;50.006;36.180;2022-10-26T10:12:44;99291.44;;;13.20;84.42
54666;BME280;40566;50.006;36.180;2022-10-26T10:17:47;99289.38;;;13.26;84.15
54666;BME280;40566;50.006;36.180;2022-10-26T10:22:59;99285.69;;;13.32;84.28
54666;BME280;40566;50.006;36.180;2022-10-26T10:28:02;99289.91;;;13.35;84.06
54666;BME280;40566;50.006;36.180;2022-10-26T10:33:11;99286.09;;;13.42;84.02
54666;BME280;40566;50.006;36.180;2022-10-26T10:38:16;99290.31;;;13.44;84.02
54666;BME280;40566;50.006;36.180;2022-10-26T10:43:18;99292.91;;;13.44;84.19
54666;BME280;40566;50.006;36.180;2022-10-26T10:48:22;99285.75;;;13.49;83.70
54666;BME280;40566;50.006;36.180;2022-10-26T10:53:33;99289.81;;;13.55;83.81
54666;BME280;40566;50.006;36.180;2022-10-26T11:09:39;99295.22;;;13.51;83.88
54666;BME280;40566;50.006;36.180;2022-10-26T11:14:47;99285.75;;;13.31;84.51
54666;BME280;40566;50.006;36.180;2022-10-26T11:20:10;99304.28;;;13.42;84.48
54666;BME280;40566;50.006;36.180;2022-10-26T11:25:19;99294.44;;;13.48;84.15
54666;BME280;40566;50.006;36.180;2022-10-26T11:30:24;99292.84;;;13.46;84.15
54666;BME280;40566;50.006;36.180;2022-10-26T11:35:28;99288.00;;;13.57;84.17
54666;BME280;40566;50.006;36.180;2022-10-26T11:46:00;99290.59;;;13.57;83.94
54666;BME280;40566;50.006;36.180;2022-10-26T11:51:02;99291.72;;;13.52;84.25
54666;BME280;40566;50.006;36.180;2022-10-26T11:56:11;99287.28;;;13.54;84.41
54666;BME280;40566;50.006;36.180;2022-10-26T12:01:14;99287.47;;;13.68;83.99
54666;BME280;40566;50.006;36.180;2022-10-26T12:06:23;99281.84;;;13.77;83.73
54666;BME280;40566;50.006;36.180;2022-10-26T12:11:44;99288.41;;;14.02;82.93
54666;BME280;40566;50.006;36.180;2022-10-26T12:21:52;99305.59;;;14.06;82.95
54666;BME280;40566;50.006;36.180;2022-10-26T12:26:54;99314.34;;;14.03;83.08
54666;BME280;40566;50.006;36.180;2022-10-26T12:31:56;99319.16;;;13.94;83.11
54666;BME280;40566;50.006;36.180;2022-10-26T12:47:04;99327.38;;;13.67;83.71
54666;BME280;40566;50.006;36.180;2022-10-26T12:52:17;99316.72;;;13.54;83.65
54666;BME280;40566;50.006;36.180;2022-10-26T12:57:26;99321.28;;;13.49;83.93
54666;BME280;40566;50.006;36.180;2022-10-26T13:08:04;99327.53;;;13.45;83.91
54666;BME280;40566;50.006;36.180;2022-10-26T13:13:06;99322.91;;;13.33;83.98
54666;BME280;40566;50.006;36.180;2022-10-26T13:18:12;99322.00;;;13.34;83.88
54666;BME280;40566;50.006;36.180;2022-10-26T13:23:22;99323.00;;;13.31;84.06
54666;BME280;40566;50.006;36.180;2022-10-26T13:33:40;99331.38;;;13.17;84.11
54666;BME280;40566;50.006;36.180;2022-10-26T13:38:44;99328.19;;;13.10;84.30
54666;BME280;40566;50.006;36.180;2022-10-26T13:43:47;99330.78;;;13.10;84.06
54666;BME280;40566;50.006;36.180;2022-10-26T13:48:48;99342.09;;;13.09;84.17
54666;BME280;40566;50.006;36.180;2022-10-26T13:58:57;99355.09;;;13.09;84.13
54666;BME280;40566;50.006;36.180;2022-10-26T14:04:16;99342.16;;;13.08;84.13
54666;BME280;40566;50.006;36.180;2022-10-26T14:09:19;99340.47;;;13.07;84.15
54666;BME280;40566;50.006;36.180;2022-10-26T14:14:30;99344.88;;;13.05;83.95
54666;BME280;40566;50.006;36.180;2022-10-26T14:19:33;99351.19;;;12.99;84.08
54666;BME280;40566;50.006;36.180;2022-10-26T14:24:36;99353.72;;;13.01;84.16
54666;BME280;40566;50.006;36.180;2022-10-26T14:29:40;99359.06;;;12.98;84.40
54666;BME280;40566;50.006;36.180;2022-10-26T14:34:40;99373.09;;;12.94;84.18
54666;BME280;40566;50.006;36.180;2022-10-26T14:39:43;99363.50;;;12.96;84.59
54666;BME280;40566;50.006;36.180;2022-10-26T14:44:44;99382.09;;;12.85;84.49
54666;BME280;40566;50.006;36.180;2022-10-26T14:49:45;99385.75;;;12.81;84.63
54666;BME280;40566;50.006;36.180;2022-10-26T14:54:59;99371.22;;;12.77;84.94
54666;BME280;40566;50.006;36.180;2022-10-26T15:00:25;99383.22;;;12.79;84.74
54666;BME280;40566;50.006;36.180;2022-10-26T15:05:27;99385.19;;;12.74;84.89
54666;BME280;40566;50.006;36.180;2022-10-26T15:10:49;99382.75;;;12.69;84.97
54666;BME280;40566;50.006;36.180;2022-10-26T15:15:52;99389.75;;;12.67;84.94
54666;BME280;40566;50.006;36.180;2022-10-26T15:20:54;99394.31;;;12.62;85.07
54666;BME280;40566;50.006;36.180;2022-10-26T15:25:58;99396.19;;;12.59;84.87
54666;BME280;40566;50.006;36.180;2022-10-26T15:36:19;99406.00;;;12.52;84.75
54666;BME280;40566;50.006;36.180;2022-10-26T15:41:34;99415.59;;;12.50;84.81
54666;BME280;40566;50.006;36.180;2022-10-26T15:46:35;99423.28;;;12.52;84.64
54666;BME280;40566;50.006;36.180;2022-10-26T15:51:38;99426.91;;;12.47;84.74
54666;BME280;40566;50.006;36.180;2022-10-26T15:56:40;99424.78;;;12.37;84.73
54666;BME280;40566;50.006;36.180;2022-10-26T16:01:43;99436.97;;;12.35;84.73
54666;BME280;40566;50.006;36.180;2022-10-26T16:06:43;99436.97;;;12.35;84.46
54666;BME280;40566;50.006;36.180;2022-10-26T16:11:45;99443.81;;;12.36;84.44
54666;BME280;40566;50.006;36.180;2022-10-26T16:16:46;99449.88;;;12.36;84.25
54666;BME280;40566;50.006;36.180;2022-10-26T16:21:49;99433.59;;;12.33;84.40
54666;BME280;40566;50.006;36.180;2022-10-26T16:26:50;99446.47;;;12.34;84.40
54666;BME280;40566;50.006;36.180;2022-10-26T16:31:51;99451.00;;;12.29;84.27
54666;BME280;40566;50.006;36.180;2022-10-26T16:36:51;99452.09;;;12.23;84.19
54666;BME280;40566;50.006;36.180;2022-10-26T16:41:52;99449.78;;;12.16;84.22
54666;BME280;40566;50.006;36.180;2022-10-26T16:46:53;99451.91;;;12.06;84.37
54666;BME280;40566;50.006;36.180;2022-10-26T16:51:53;99454.78;;;11.98;84.38
54666;BME280;40566;50.006;36.180;2022-10-26T16:56:55;99459.38;;;11.92;84.30
54666;BME280;40566;50.006;36.180;2022-10-26T17:01:55;99462.25;;;11.82;84.07
54666;BME280;40566;50.006;36.180;2022-10-26T17:06:57;99454.00;;;11.73;84.23
54666;BME280;40566;50.006;36.180;2022-10-26T17:11:58;99455.13;;;11.65;84.51
54666;BME280;40566;50.006;36.180;2022-10-26T17:16:59;99455.88;;;11.69;84.31
54666;BME280;40566;50.006;36.180;2022-10-26T17:22:01;99451.53;;;11.69;84.32
54666;BME280;40566;50.006;36.180;2022-10-26T17:27:02;99459.31;;;11.69;84.26
54666;BME280;40566;50.006;36.180;2022-10-26T17:32:02;99455.06;;;11.67;84.02
54666;BME280;40566;50.006;36.180;2022-10-26T17:37:03;99462.69;;;11.71;84.18
54666;BME280;40566;50.006;36.180;2022-10-26T17:42:04;99463.84;;;11.63;84.13
54666;BME280;40566;50.006;36.180;2022-10-26T17:47:04;99455.19;;;11.64;84.04
54666;BME280;40566;50.006;36.180;2022-10-26T17:52:05;99453.38;;;11.66;83.94
54666;BME280;40566;50.006;36.180;2022-10-26T17:57:06;99453.38;;;11.66;83.81
54666;BME280;40566;50.006;36.180;2022-10-26T18:02:08;99446.41;;;11.68;83.57
54666;BME280;40566;50.006;36.180;2022-10-26T18:07:09;99458.38;;;11.70;83.77
54666;BME280;40566;50.006;36.180;2022-10-26T18:12:09;99460.38;;;11.64;83.63
54666;BME280;40566;50.006;36.180;2022-10-26T18:17:10;99468.97;;;11.64;83.53
54666;BME280;40566;50.006;36.180;2022-10-26T18:22:11;99465.56;;;11.64;83.60
54666;BME280;40566;50.006;36.180;2022-10-26T18:27:11;99468.94;;;11.66;83.35
54666;BME280;40566;50.006;36.180;2022-10-26T18:32:12;99473.28;;;11.65;83.40
54666;BME280;40566;50.006;36.180;2022-10-26T18:37:14;99475.19;;;11.60;83.43
54666;BME280;40566;50.006;36.180;2022-10-26T18:42:14;99483.00;;;11.59;83.39
54666;BME280;40566;50.006;36.180;2022-10-26T18:47:15;99494.41;;;11.53;83.12
54666;BME280;40566;50.006;36.180;2022-10-26T18:52:16;99493.72;;;11.49;83.36
54666;BME280;40566;50.006;36.180;2022-10-26T18:57:16;99497.31;;;11.45;83.37
54666;BME280;40566;50.006;36.180;2022-10-26T19:02:18;99492.91;;;11.47;83.03
54666;BME280;40566;50.006;36.180;2022-10-26T19:07:19;99501.47;;;11.49;82.88
54666;BME280;40566;50.006;36.180;2022-10-26T19:12:20;99500.59;;;11.49;82.79
54666;BME280;40566;50.006;36.180;2022-10-26T19:17:20;99505.75;;;11.50;82.72
54666;BME280;40566;50.006;36.180;2022-10-26T19:22:22;99508.34;;;11.50;82.48
54666;BME280;40566;50.006;36.180;2022-10-26T19:27:22;99509.28;;;11.48;82.83
54666;BME280;40566;50.006;36.180;2022-10-26T19:32:26;99508.47;;;11.47;82.96
54666;BME280;40566;50.006;36.180;2022-10-26T19:37:27;99517.94;;;11.47;82.71
54666;BME280;40566;50.006;36.180;2022-10-26T19:42:28;99519.75;;;11.45;82.70
54666;BME280;40566;50.006;36.180;2022-10-26T19:47:29;99514.66;;;11.43;82.56
54666;BME280;40566;50.006;36.180;2022-10-26T19:52:29;99527.53;;;11.45;82.60
54666;BME280;40566;50.006;36.180;2022-10-26T19:57:30;99519.81;;;11.43;82.72
54666;BME280;40566;50.006;36.180;2022-10-26T20:02:30;99532.78;;;11.43;82.41
54666;BME280;40566;50.006;36.180;2022-10-26T20:07:31;99538.75;;;11.45;82.08
54666;BME280;40566;50.006;36.180;2022-10-26T20:12:31;99543.41;;;11.36;82.12
54666;BME280;40566;50.006;36.180;2022-10-26T20:17:33;99536.50;;;11.35;82.16
54666;BME280;40566;50.006;36.180;2022-10-26T20:22:34;99552.88;;;11.35;82.06
54666;BME280;40566;50.006;36.180;2022-10-26T20:27:34;99553.75;;;11.36;82.02
54666;BME280;40566;50.006;36.180;2022-10-26T20:32:36;99559.66;;;11.39;82.18
54666;BME280;40566;50.006;36.180;2022-10-26T20:37:37;99561.41;;;11.39;82.00
54666;BME280;40566;50.006;36.180;2022-10-26T20:42:38;99564.66;;;11.45;81.87
54666;BME280;40566;50.006;36.180;2022-10-26T20:47:39;99557.84;;;11.41;81.81
54666;BME280;40566;50.006;36.180;2022-10-26T20:52:46;99563.38;;;11.32;81.72
54666;BME280;40566;50.006;36.180;2022-10-26T20:58:29;99552.16;;;11.31;81.71
54666;BME280;40566;50.006;36.180;2022-10-26T21:03:23;99568.00;;;11.22;81.90
54666;BME280;40566;50.006;36.180;2022-10-26T21:08:24;99573.19;;;11.22;81.95
54666;BME280;40566;50.006;36.180;2022-10-26T21:13:24;99581.91;;;11.20;81.73
54666;BME280;40566;50.006;36.180;2022-10-26T21:18:25;99574.31;;;11.14;81.88
54666;BME280;40566;50.006;36.180;2022-10-26T21:23:43;99562.06;;;11.19;81.33
54666;BME280;40566;50.006;36.180;2022-10-26T21:28:45;99576.97;;;11.12;81.68
54666;BME280;40566;50.006;36.180;2022-10-26T21:33:46;99571.06;;;11.08;81.56
54666;BME280;40566;50.006;36.180;2022-10-26T21:38:47;99573.59;;;11.10;81.56
54666;BME280;40566;50.006;36.180;2022-10-26T21:43:48;99575.47;;;11.05;81.41
54666;BME280;40566;50.006;36.180;2022-10-26T21:48:51;99568.91;;;10.95;81.69
54666;BME280;40566;50.006;36.180;2022-10-26T21:53:51;99583.91;;;10.83;81.86
54666;BME280;40566;50.006;36.180;2022-10-26T21:58:52;99596.84;;;10.83;81.64
54666;BME280;40566;50.006;36.180;2022-10-26T22:03:52;99590.94;;;10.80;81.59
54666;BME280;40566;50.006;36.180;2022-10-26T22:08:53;99591.44;;;10.91;81.44
54666;BME280;40566;50.006;36.180;2022-10-26T22:13:54;99600.81;;;10.95;81.50
54666;BME280;40566;50.006;36.180;2022-10-26T22:18:57;99594.84;;;10.93;81.29
54666;BME280;40566;50.006;36.180;2022-10-26T22:23:57;99608.03;;;10.84;81.23
54666;BME280;40566;50.006;36.180;2022-10-26T22:28:58;99604.09;;;10.72;81.43
54666;BME280;40566;50.006;36.180;2022-10-26T22:34:04;99593.75;;;10.72;81.29
54666;BME280;40566;50.006;36.180;2022-10-26T22:39:05;99606.06;;;10.64;81.12
54666;BME280;40566;50.006;36.180;2022-10-26T22:44:06;99620.91;;;10.59;81.15
54666;BME280;40566;50.006;36.180;2022-10-26T22:49:06;99615.06;;;10.52;80.98
54666;BME280;40566;50.006;36.180;2022-10-26T22:54:07;99615.19;;;10.47;80.84
54666;BME280;40566;50.006;36.180;2022-10-26T22:59:07;99626.53;;;10.43;80.57
54666;BME280;40566;50.006;36.180;2022-10-26T23:04:09;99603.44;;;10.37;80.75
54666;BME280;40566;50.006;36.180;2022-10-26T23:09:11;99616.41;;;10.36;80.42
54666;BME280;40566;50.006;36.180;2022-10-26T23:14:12;99623.16;;;10.40;80.22
54666;BME280;40566;50.006;36.180;2022-10-26T23:19:12;99608.56;;;10.39;79.88
54666;BME280;40566;50.006;36.180;2022-10-26T23:24:13;99621.72;;;10.29;80.04
54666;BME280;40566;50.006;36.180;2022-10-26T23:29:14;99620.50;;;10.11;80.17
54666;BME280;40566;50.006;36.180;2022-10-26T23:34:14;99616.38;;;10.04;80.58
54666;BME280;40566;50.006;36.180;2022-10-26T23:39:15;99617.16;;;10.08;80.28
54666;BME280;40566;50.006;36.180;2022-10-26T23:44:15;99623.19;;;10.07;80.09
54666;BME280;40566;50.006;36.180;2022-10-26T23:49:16;99625.78;;;10.07;80.03
54666;BME280;40566;50.006;36.180;2022-10-26T23:54:17;99624.97;;;10.05;79.72
54666;BME280;40566;50.006;36.180;2022-10-26T23:59:17;99631.41;;;9.91;79.88
